createdAt,value
2018-12-26T00:00:39.082Z,1019.90
2018-12-26T00:01:39.161Z,1019.90
2018-12-26T00:02:39.067Z,1019.89
2018-12-26T00:03:39.054Z,1019.86
2018-12-26T00:04:39.056Z,1019.89
2018-12-26T00:05:39.136Z,1019.91
2018-12-26T00:06:39.022Z,1019.89
2018-12-26T00:07:39.010Z,1019.86
2018-12-26T00:08:38.997Z,1019.86
2018-12-26T00:09:39.002Z,1019.86
2018-12-26T00:10:38.976Z,1019.84
2018-12-26T00:11:38.965Z,1019.86
2018-12-26T00:12:38.970Z,1019.85
2018-12-26T00:13:38.948Z,1019.88
2018-12-26T00:14:38.934Z,1019.84
2018-12-26T00:15:38.943Z,1019.82
2018-12-26T00:16:38.913Z,1019.84
2018-12-26T00:17:38.901Z,1019.78
2018-12-26T00:18:38.957Z,1019.89
2018-12-26T00:19:38.931Z,1019.80
2018-12-26T00:20:38.906Z,1019.81
2018-12-26T00:21:38.860Z,1019.83
2018-12-26T00:22:38.845Z,1019.86
2018-12-26T00:23:38.834Z,1019.79
2018-12-26T00:24:38.826Z,1019.84
2018-12-26T00:25:38.818Z,1019.78
2018-12-26T00:26:38.839Z,1019.76
2018-12-26T00:27:38.794Z,1019.74
2018-12-26T00:28:38.783Z,1019.75
2018-12-26T00:29:38.774Z,1019.76
2018-12-26T00:30:38.762Z,1019.80
2018-12-26T00:31:38.749Z,1019.74
2018-12-26T00:32:38.753Z,1019.72
2018-12-26T00:33:38.726Z,1019.71
2018-12-26T00:34:38.719Z,1019.72
2018-12-26T00:35:38.707Z,1019.73
2018-12-26T00:36:38.711Z,1019.72
2018-12-26T00:37:38.707Z,1019.72
2018-12-26T00:38:38.675Z,1019.78
2018-12-26T00:39:38.665Z,1019.78
2018-12-26T00:40:38.652Z,1019.77
2018-12-26T00:41:38.644Z,1019.77
2018-12-26T00:42:38.653Z,1019.70
2018-12-26T00:43:38.625Z,1019.74
2018-12-26T00:44:38.610Z,1019.73
2018-12-26T00:45:38.599Z,1019.78
2018-12-26T00:46:38.589Z,1019.73
2018-12-26T00:47:38.581Z,1019.71
2018-12-26T00:48:38.582Z,1019.74
2018-12-26T00:49:38.555Z,1019.73
2018-12-26T00:50:38.546Z,1019.74
2018-12-26T00:51:38.538Z,1019.75
2018-12-26T00:52:38.532Z,1019.79
2018-12-26T00:53:38.529Z,1019.71
2018-12-26T00:54:38.504Z,1019.74
2018-12-26T00:55:38.491Z,1019.76
2018-12-26T00:56:38.482Z,1019.77
2018-12-26T00:57:38.469Z,1019.76
2018-12-26T00:58:38.474Z,1019.74
2018-12-26T00:59:38.447Z,1019.77
2018-12-26T01:00:38.440Z,1019.65
2018-12-26T01:01:38.428Z,1019.63
2018-12-26T01:02:38.417Z,1019.60
2018-12-26T01:03:38.421Z,1019.56
2018-12-26T01:04:38.394Z,1019.59
2018-12-26T01:05:38.400Z,1019.63
2018-12-26T01:06:38.373Z,1019.64
2018-12-26T01:07:38.363Z,1019.58
2018-12-26T01:08:38.351Z,1019.65
2018-12-26T01:09:38.341Z,1019.72
2018-12-26T01:10:38.351Z,1019.67
2018-12-26T01:11:38.320Z,1019.67
2018-12-26T01:12:38.313Z,1019.67
2018-12-26T01:13:38.300Z,1019.65
2018-12-26T01:14:38.287Z,1019.58
2018-12-26T01:15:38.277Z,1019.62
2018-12-26T01:16:38.279Z,1019.63
2018-12-26T01:17:38.255Z,1019.58
2018-12-26T01:18:38.248Z,1019.59
2018-12-26T01:19:38.233Z,1019.60
2018-12-26T01:20:38.222Z,1019.62
2018-12-26T01:21:38.248Z,1019.60
2018-12-26T01:22:38.204Z,1019.55
2018-12-26T01:23:38.189Z,1019.57
2018-12-26T01:24:38.182Z,1019.55
2018-12-26T01:25:38.168Z,1019.49
2018-12-26T01:26:38.162Z,1019.50
2018-12-26T01:27:38.165Z,1019.55
2018-12-26T01:28:38.138Z,1019.49
2018-12-26T01:29:38.138Z,1019.49
2018-12-26T01:30:38.121Z,1019.47
2018-12-26T01:31:38.108Z,1019.49
2018-12-26T01:32:38.116Z,1019.46
2018-12-26T01:33:38.084Z,1019.41
2018-12-26T01:34:38.077Z,1019.40
2018-12-26T01:35:38.063Z,1019.39
2018-12-26T01:36:38.057Z,1019.38
2018-12-26T01:37:38.043Z,1019.34
2018-12-26T01:38:38.075Z,1019.36
2018-12-26T01:39:38.023Z,1019.35
2018-12-26T01:40:38.010Z,1019.38
2018-12-26T01:41:37.997Z,1019.38
2018-12-26T01:42:37.991Z,1019.38
2018-12-26T01:43:37.979Z,1019.32
2018-12-26T01:44:37.981Z,1019.35
2018-12-26T01:45:37.972Z,1019.38
2018-12-26T01:46:37.958Z,1019.34
2018-12-26T01:47:37.937Z,1019.33
2018-12-26T01:48:37.928Z,1019.32
2018-12-26T01:49:37.914Z,1019.34
2018-12-26T01:50:37.902Z,1019.36
2018-12-26T01:51:37.907Z,1019.29
2018-12-26T01:52:37.880Z,1019.34
2018-12-26T01:53:37.884Z,1019.36
2018-12-26T01:54:37.860Z,1019.35
2018-12-26T01:55:37.848Z,1019.43
2018-12-26T01:56:37.840Z,1019.36
2018-12-26T01:57:37.841Z,1019.32
2018-12-26T01:58:37.823Z,1019.31
2018-12-26T01:59:37.809Z,1019.33
2018-12-26T02:00:37.799Z,1019.33
2018-12-26T02:01:37.784Z,1019.31
2018-12-26T02:02:37.787Z,1019.31
2018-12-26T02:03:37.765Z,1019.26
2018-12-26T02:04:37.763Z,1019.29
2018-12-26T02:05:37.743Z,1019.31
2018-12-26T02:06:37.733Z,1019.22
2018-12-26T02:07:37.726Z,1019.32
2018-12-26T02:08:37.740Z,1019.31
2018-12-26T02:09:37.699Z,1019.35
2018-12-26T02:10:37.694Z,1019.35
2018-12-26T02:11:37.678Z,1019.38
2018-12-26T02:12:37.668Z,1019.37
2018-12-26T02:13:37.666Z,1019.35
2018-12-26T02:14:37.671Z,1019.34
2018-12-26T02:15:37.639Z,1019.35
2018-12-26T02:16:37.624Z,1019.31
2018-12-26T02:17:37.616Z,1019.35
2018-12-26T02:18:37.723Z,1019.38
2018-12-26T02:19:37.591Z,1019.36
2018-12-26T02:20:37.598Z,1019.38
2018-12-26T02:21:37.571Z,1019.39
2018-12-26T02:22:37.560Z,1019.40
2018-12-26T02:23:37.565Z,1019.42
2018-12-26T02:24:37.540Z,1019.43
2018-12-26T02:25:37.545Z,1019.39
2018-12-26T02:26:37.517Z,1019.38
2018-12-26T02:27:37.511Z,1019.40
2018-12-26T02:28:37.498Z,1019.34
2018-12-26T02:29:37.484Z,1019.34
2018-12-26T02:30:37.501Z,1019.30
2018-12-26T02:31:37.506Z,1019.30
2018-12-26T02:32:37.455Z,1019.27
2018-12-26T02:33:37.448Z,1019.30
2018-12-26T02:34:37.435Z,1019.29
2018-12-26T02:35:37.421Z,1019.27
2018-12-26T02:36:37.426Z,1019.31
2018-12-26T02:37:37.408Z,1019.25
2018-12-26T02:38:37.391Z,1019.22
2018-12-26T02:39:37.384Z,1019.23
2018-12-26T02:40:37.382Z,1019.25
2018-12-26T02:41:37.360Z,1019.21
2018-12-26T02:42:37.352Z,1019.20
2018-12-26T02:43:37.338Z,1019.16
2018-12-26T02:44:37.325Z,1019.13
2018-12-26T02:45:37.331Z,1019.06
2018-12-26T02:46:37.304Z,1019.00
2018-12-26T02:47:37.326Z,1018.99
2018-12-26T02:48:37.287Z,1019.00
2018-12-26T02:49:37.274Z,1018.93
2018-12-26T02:50:37.265Z,1018.95
2018-12-26T02:51:37.249Z,1018.90
2018-12-26T02:52:37.242Z,1018.94
2018-12-26T02:53:37.287Z,1018.91
2018-12-26T02:54:37.219Z,1018.90
2018-12-26T02:55:37.211Z,1018.90
2018-12-26T02:56:46.134Z,1018.90
2018-12-26T02:57:38.187Z,1018.92
2018-12-26T02:58:37.177Z,1018.90
2018-12-26T02:59:37.214Z,1018.91
2018-12-26T03:00:37.156Z,1018.93
2018-12-26T03:01:37.144Z,1018.90
2018-12-26T03:02:37.136Z,1018.90
2018-12-26T03:03:37.133Z,1018.84
2018-12-26T03:04:37.119Z,1018.85
2018-12-26T03:05:37.119Z,1018.87
2018-12-26T03:06:37.102Z,1018.82
2018-12-26T03:07:37.097Z,1018.85
2018-12-26T03:08:37.083Z,1018.83
2018-12-26T03:09:37.058Z,1018.83
2018-12-26T03:10:37.071Z,1018.79
2018-12-26T03:11:37.037Z,1018.76
2018-12-26T03:12:37.030Z,1018.73
2018-12-26T03:13:37.019Z,1018.75
2018-12-26T03:14:37.042Z,1018.72
2018-12-26T03:15:36.997Z,1018.75
2018-12-26T03:16:36.995Z,1018.76
2018-12-26T03:17:36.979Z,1018.81
2018-12-26T03:18:36.964Z,1018.81
2018-12-26T03:19:36.956Z,1018.79
2018-12-26T03:20:36.958Z,1018.81
2018-12-26T03:21:36.930Z,1018.83
2018-12-26T03:22:36.922Z,1018.81
2018-12-26T03:23:36.912Z,1018.79
2018-12-26T03:24:36.916Z,1018.80
2018-12-26T03:25:36.918Z,1018.74
2018-12-26T03:26:36.879Z,1018.72
2018-12-26T03:27:36.872Z,1018.74
2018-12-26T03:28:36.856Z,1018.72
2018-12-26T03:29:36.876Z,1018.68
2018-12-26T03:30:36.837Z,1018.67
2018-12-26T03:31:36.827Z,1018.69
2018-12-26T03:32:36.820Z,1018.68
2018-12-26T03:33:36.802Z,1018.65
2018-12-26T03:34:36.801Z,1018.68
2018-12-26T03:35:36.793Z,1018.66
2018-12-26T03:36:36.788Z,1018.64
2018-12-26T03:37:36.764Z,1018.62
2018-12-26T03:38:36.748Z,1018.64
2018-12-26T03:39:36.740Z,1018.60
2018-12-26T03:40:36.735Z,1018.59
2018-12-26T03:41:36.735Z,1018.57
2018-12-26T03:42:36.732Z,1018.55
2018-12-26T03:43:36.700Z,1018.54
2018-12-26T03:44:36.703Z,1018.51
2018-12-26T03:45:36.676Z,1018.59
2018-12-26T03:46:36.683Z,1018.48
2018-12-26T03:47:36.655Z,1018.48
2018-12-26T03:48:36.661Z,1018.44
2018-12-26T03:49:36.632Z,1018.47
2018-12-26T03:50:36.621Z,1018.48
2018-12-26T03:51:36.613Z,1018.47
2018-12-26T03:52:36.621Z,1018.43
2018-12-26T03:53:36.614Z,1018.42
2018-12-26T03:54:36.582Z,1018.40
2018-12-26T03:55:36.572Z,1018.37
2018-12-26T03:56:36.559Z,1018.34
2018-12-26T03:57:36.564Z,1018.38
2018-12-26T03:58:36.549Z,1018.34
2018-12-26T03:59:36.526Z,1018.34
2018-12-26T04:00:36.534Z,1018.36
2018-12-26T04:01:36.507Z,1018.37
2018-12-26T04:02:36.495Z,1018.38
2018-12-26T04:03:36.494Z,1018.41
2018-12-26T04:04:36.472Z,1018.36
2018-12-26T04:05:36.477Z,1018.34
2018-12-26T04:06:36.459Z,1018.34
2018-12-26T04:07:36.443Z,1018.33
2018-12-26T04:08:36.430Z,1018.34
2018-12-26T04:09:36.419Z,1018.31
2018-12-26T04:10:36.428Z,1018.25
2018-12-26T04:11:36.399Z,1018.29
2018-12-26T04:12:36.404Z,1018.29
2018-12-26T04:13:36.375Z,1018.37
2018-12-26T04:14:36.369Z,1018.35
2018-12-26T04:15:36.369Z,1018.28
2018-12-26T04:16:36.361Z,1018.32
2018-12-26T04:17:36.363Z,1018.28
2018-12-26T04:18:36.327Z,1018.27
2018-12-26T04:19:36.312Z,1018.28
2018-12-26T04:20:36.301Z,1018.29
2018-12-26T04:21:36.294Z,1018.31
2018-12-26T04:22:36.281Z,1018.27
2018-12-26T04:23:36.285Z,1018.31
2018-12-26T04:24:36.261Z,1018.27
2018-12-26T04:25:36.249Z,1018.31
2018-12-26T04:26:36.240Z,1018.31
2018-12-26T04:27:36.240Z,1018.28
2018-12-26T04:28:36.219Z,1018.30
2018-12-26T04:29:36.205Z,1018.30
2018-12-26T04:30:36.193Z,1018.32
2018-12-26T04:31:36.186Z,1018.33
2018-12-26T04:32:36.193Z,1018.28
2018-12-26T04:33:36.181Z,1018.39
2018-12-26T04:34:36.156Z,1018.36
2018-12-26T04:35:36.142Z,1018.34
2018-12-26T04:36:36.130Z,1018.39
2018-12-26T04:37:36.158Z,1018.34
2018-12-26T04:38:36.111Z,1018.40
2018-12-26T04:39:36.103Z,1018.36
2018-12-26T04:40:36.089Z,1018.35
2018-12-26T04:41:36.081Z,1018.39
2018-12-26T04:42:36.069Z,1018.37
2018-12-26T04:43:36.084Z,1018.37
2018-12-26T04:44:36.047Z,1018.35
2018-12-26T04:45:36.040Z,1018.40
2018-12-26T04:46:36.025Z,1018.38
2018-12-26T04:47:36.015Z,1018.37
2018-12-26T04:48:36.087Z,1018.41
2018-12-26T04:49:36.009Z,1018.39
2018-12-26T04:50:35.983Z,1018.38
2018-12-26T04:51:35.971Z,1018.31
2018-12-26T04:52:35.964Z,1018.32
2018-12-26T04:53:35.949Z,1018.31
2018-12-26T04:54:35.938Z,1018.33
2018-12-26T04:55:35.948Z,1018.36
2018-12-26T04:56:35.915Z,1018.39
2018-12-26T04:57:35.918Z,1018.42
2018-12-26T04:58:35.895Z,1018.41
2018-12-26T04:59:35.889Z,1018.47
2018-12-26T05:00:35.892Z,1018.50
2018-12-26T05:01:35.866Z,1018.50
2018-12-26T05:02:35.853Z,1018.49
2018-12-26T05:03:35.862Z,1018.47
2018-12-26T05:04:35.834Z,1018.51
2018-12-26T05:05:35.820Z,1018.49
2018-12-26T05:06:35.810Z,1018.50
2018-12-26T05:07:35.807Z,1018.56
2018-12-26T05:08:35.789Z,1018.52
2018-12-26T05:09:35.819Z,1018.52
2018-12-26T05:10:35.771Z,1018.53
2018-12-26T05:11:35.756Z,1018.53
2018-12-26T05:12:35.748Z,1018.58
2018-12-26T05:13:35.739Z,1018.58
2018-12-26T05:14:35.729Z,1018.59
2018-12-26T05:15:35.731Z,1018.67
2018-12-26T05:16:35.705Z,1018.57
2018-12-26T05:17:35.704Z,1018.66
2018-12-26T05:18:35.686Z,1018.64
2018-12-26T05:19:35.675Z,1018.63
2018-12-26T05:20:35.661Z,1018.62
2018-12-26T05:21:35.653Z,1018.62
2018-12-26T05:22:35.672Z,1018.62
2018-12-26T05:23:35.628Z,1018.63
2018-12-26T05:24:35.719Z,1018.66
2018-12-26T05:25:35.609Z,1018.68
2018-12-26T05:26:35.600Z,1018.68
2018-12-26T05:27:35.588Z,1018.63
2018-12-26T05:28:35.597Z,1018.69
2018-12-26T05:29:35.568Z,1018.65
2018-12-26T05:30:35.558Z,1018.64
2018-12-26T05:31:35.543Z,1018.62
2018-12-26T05:32:35.536Z,1018.65
2018-12-26T05:33:35.537Z,1018.69
2018-12-26T05:34:35.590Z,1018.65
2018-12-26T05:35:35.499Z,1018.67
2018-12-26T05:36:35.490Z,1018.71
2018-12-26T05:37:35.483Z,1018.69
2018-12-26T05:38:35.484Z,1018.75
2018-12-26T05:39:35.457Z,1018.72
2018-12-26T05:40:35.458Z,1018.79
2018-12-26T05:41:35.436Z,1018.75
2018-12-26T05:42:35.429Z,1018.74
2018-12-26T05:43:35.416Z,1018.73
2018-12-26T05:44:35.422Z,1018.76
2018-12-26T05:45:35.396Z,1018.76
2018-12-26T05:46:35.388Z,1018.76
2018-12-26T05:47:35.374Z,1018.76
2018-12-26T05:48:35.363Z,1018.78
2018-12-26T05:49:35.371Z,1018.76
2018-12-26T05:50:35.339Z,1018.80
2018-12-26T05:51:35.331Z,1018.84
2018-12-26T05:52:35.317Z,1018.86
2018-12-26T05:53:35.310Z,1018.87
2018-12-26T05:54:35.314Z,1018.85
2018-12-26T05:55:36.495Z,1018.85
2018-12-26T05:56:35.277Z,1018.82
2018-12-26T05:57:42.567Z,1018.80
2018-12-26T05:58:36.254Z,1018.81
2018-12-26T05:59:35.243Z,1018.81
2018-12-26T06:00:35.233Z,1018.85
2018-12-26T06:01:35.238Z,1018.88
2018-12-26T06:02:35.227Z,1018.88
2018-12-26T06:03:35.203Z,1018.90
2018-12-26T06:04:35.191Z,1018.88
2018-12-26T06:05:35.184Z,1018.90
2018-12-26T06:06:35.204Z,1018.89
2018-12-26T06:07:35.160Z,1018.92
2018-12-26T06:08:35.147Z,1018.90
2018-12-26T06:09:35.140Z,1018.94
2018-12-26T06:10:35.130Z,1018.92
2018-12-26T06:11:35.119Z,1018.93
2018-12-26T06:12:35.119Z,1018.90
2018-12-26T06:13:35.099Z,1018.88
2018-12-26T06:14:35.086Z,1018.90
2018-12-26T06:15:35.074Z,1018.95
2018-12-26T06:16:35.066Z,1018.92
2018-12-26T06:17:35.071Z,1018.97
2018-12-26T06:18:35.061Z,1018.97
2018-12-26T06:19:35.030Z,1019.04
2018-12-26T06:20:35.021Z,1019.03
2018-12-26T06:21:35.012Z,1019.03
2018-12-26T06:22:35.116Z,1019.02
2018-12-26T06:23:35.011Z,1019.04
2018-12-26T06:24:34.996Z,1019.02
2018-12-26T06:25:34.972Z,1019.03
2018-12-26T06:26:34.959Z,1019.02
2018-12-26T06:27:34.947Z,1018.99
2018-12-26T06:28:34.936Z,1019.01
2018-12-26T06:29:34.939Z,1018.98
2018-12-26T06:30:34.929Z,1019.01
2018-12-26T06:31:34.904Z,1018.97
2018-12-26T06:32:34.911Z,1018.97
2018-12-26T06:33:34.884Z,1018.92
2018-12-26T06:34:34.876Z,1018.94
2018-12-26T06:35:34.860Z,1018.95
2018-12-26T06:36:34.851Z,1018.93
2018-12-26T06:37:34.855Z,1018.90
2018-12-26T06:38:34.831Z,1018.92
2018-12-26T06:39:34.832Z,1018.91
2018-12-26T06:40:34.809Z,1018.89
2018-12-26T06:41:34.794Z,1018.89
2018-12-26T06:42:34.795Z,1018.86
2018-12-26T06:43:34.776Z,1018.81
2018-12-26T06:44:34.783Z,1018.86
2018-12-26T06:45:34.753Z,1018.82
2018-12-26T06:46:34.744Z,1018.78
2018-12-26T06:47:34.734Z,1018.82
2018-12-26T06:48:34.721Z,1018.85
2018-12-26T06:49:34.733Z,1018.80
2018-12-26T06:50:34.701Z,1018.76
2018-12-26T06:51:34.691Z,1018.82
2018-12-26T06:52:34.702Z,1018.78
2018-12-26T06:53:34.667Z,1018.76
2018-12-26T06:54:34.658Z,1018.78
2018-12-26T06:55:34.648Z,1018.75
2018-12-26T06:56:34.636Z,1018.71
2018-12-26T06:57:34.627Z,1018.67
2018-12-26T06:58:34.632Z,1018.68
2018-12-26T06:59:34.606Z,1018.71
2018-12-26T07:00:34.613Z,1018.68
2018-12-26T07:01:34.581Z,1018.69
2018-12-26T07:02:34.571Z,1018.72
2018-12-26T07:03:34.579Z,1018.65
2018-12-26T07:04:34.551Z,1018.75
2018-12-26T07:05:34.541Z,1018.75
2018-12-26T07:06:34.530Z,1018.74
2018-12-26T07:07:34.517Z,1018.76
2018-12-26T07:08:34.525Z,1018.74
2018-12-26T07:09:34.497Z,1018.73
2018-12-26T07:10:34.504Z,1018.79
2018-12-26T07:11:34.488Z,1018.70
2018-12-26T07:12:34.465Z,1018.61
2018-12-26T07:13:34.477Z,1018.59
2018-12-26T07:14:34.444Z,1018.61
2018-12-26T07:15:34.436Z,1018.59
2018-12-26T07:16:34.427Z,1018.66
2018-12-26T07:17:34.411Z,1018.73
2018-12-26T07:18:34.402Z,1018.71
2018-12-26T07:19:34.406Z,1018.72
2018-12-26T07:20:34.382Z,1018.69
2018-12-26T07:21:34.372Z,1018.73
2018-12-26T07:22:34.376Z,1018.75
2018-12-26T07:23:34.350Z,1018.78
2018-12-26T07:24:34.354Z,1018.80
2018-12-26T07:25:34.326Z,1018.75
2018-12-26T07:26:34.318Z,1018.81
2018-12-26T07:27:34.305Z,1018.76
2018-12-26T07:28:34.314Z,1018.81
2018-12-26T07:29:34.286Z,1018.82
2018-12-26T07:30:34.275Z,1018.86
2018-12-26T07:31:34.262Z,1018.83
2018-12-26T07:32:34.256Z,1018.84
2018-12-26T07:33:34.254Z,1018.80
2018-12-26T07:34:41.982Z,1018.81
2018-12-26T07:35:35.222Z,1018.83
2018-12-26T07:36:34.229Z,1018.78
2018-12-26T07:37:34.198Z,1018.83
2018-12-26T07:38:34.189Z,1018.88
2018-12-26T07:39:34.179Z,1018.83
2018-12-26T07:40:34.169Z,1018.87
2018-12-26T07:41:34.175Z,1018.89
2018-12-26T07:42:34.148Z,1018.80
2018-12-26T07:43:34.135Z,1018.77
2018-12-26T07:44:34.129Z,1018.76
2018-12-26T07:45:34.112Z,1018.77
2018-12-26T07:46:34.132Z,1018.79
2018-12-26T07:47:34.091Z,1018.81
2018-12-26T07:48:34.084Z,1018.79
2018-12-26T07:49:34.071Z,1018.90
2018-12-26T07:50:34.061Z,1018.83
2018-12-26T07:51:34.052Z,1018.86
2018-12-26T07:52:34.071Z,1018.91
2018-12-26T07:53:34.031Z,1018.86
2018-12-26T07:54:34.018Z,1018.83
2018-12-26T07:55:34.005Z,1018.95
2018-12-26T07:56:33.997Z,1018.93
2018-12-26T07:57:33.985Z,1018.94
2018-12-26T07:58:33.992Z,1018.96
2018-12-26T07:59:37.664Z,1018.97
2018-12-26T08:00:33.954Z,1018.96
2018-12-26T08:01:33.943Z,1018.86
2018-12-26T08:02:33.932Z,1018.94
2018-12-26T08:03:33.937Z,1018.90
2018-12-26T08:04:33.911Z,1018.82
2018-12-26T08:05:33.899Z,1018.90
2018-12-26T08:06:33.890Z,1018.87
2018-12-26T08:07:33.884Z,1018.86
2018-12-26T08:08:33.884Z,1018.85
2018-12-26T08:09:33.874Z,1018.86
2018-12-26T08:10:33.861Z,1018.88
2018-12-26T08:11:33.835Z,1018.86
2018-12-26T08:12:33.824Z,1018.87
2018-12-26T08:13:33.816Z,1018.86
2018-12-26T08:14:33.806Z,1018.82
2018-12-26T08:15:33.810Z,1018.87
2018-12-26T08:16:33.783Z,1018.84
2018-12-26T08:17:33.775Z,1018.84
2018-12-26T08:18:33.780Z,1018.83
2018-12-26T08:19:33.752Z,1018.88
2018-12-26T08:20:33.756Z,1018.86
2018-12-26T08:21:33.753Z,1018.87
2018-12-26T08:22:33.721Z,1018.87
2018-12-26T08:23:33.709Z,1018.83
2018-12-26T08:24:33.699Z,1018.82
2018-12-26T08:25:33.685Z,1018.81
2018-12-26T08:26:33.673Z,1018.81
2018-12-26T08:27:33.675Z,1018.82
2018-12-26T08:28:33.655Z,1018.80
2018-12-26T08:29:33.644Z,1018.82
2018-12-26T08:30:33.635Z,1018.83
2018-12-26T08:31:33.626Z,1018.81
2018-12-26T08:32:33.628Z,1018.79
2018-12-26T08:33:33.602Z,1018.76
2018-12-26T08:34:33.589Z,1018.76
2018-12-26T08:35:33.581Z,1018.76
2018-12-26T08:36:33.589Z,1018.81
2018-12-26T08:37:33.558Z,1018.78
2018-12-26T08:38:33.549Z,1018.74
2018-12-26T08:39:33.537Z,1018.74
2018-12-26T08:40:33.528Z,1018.77
2018-12-26T08:41:33.514Z,1018.76
2018-12-26T08:42:33.527Z,1018.81
2018-12-26T08:43:33.495Z,1018.79
2018-12-26T08:44:33.485Z,1018.83
2018-12-26T08:45:33.472Z,1018.79
2018-12-26T08:46:33.464Z,1018.80
2018-12-26T08:47:33.452Z,1018.78
2018-12-26T08:48:33.452Z,1018.76
2018-12-26T08:49:33.430Z,1018.73
2018-12-26T08:50:33.511Z,1018.70
2018-12-26T08:51:33.423Z,1018.68
2018-12-26T08:52:33.412Z,1018.73
2018-12-26T08:53:33.390Z,1018.74
2018-12-26T08:54:33.385Z,1018.81
2018-12-26T08:55:33.365Z,1018.85
2018-12-26T08:56:33.354Z,1018.90
2018-12-26T08:57:33.360Z,1018.96
2018-12-26T08:58:35.278Z,1019.03
2018-12-26T08:59:33.325Z,1018.99
2018-12-26T09:00:33.314Z,1019.00
2018-12-26T09:01:33.300Z,1018.99
2018-12-26T09:02:33.311Z,1018.96
2018-12-26T09:03:33.297Z,1018.96
2018-12-26T09:04:33.272Z,1019.00
2018-12-26T09:05:33.259Z,1018.94
2018-12-26T09:06:33.248Z,1018.94
2018-12-26T09:07:33.240Z,1018.94
2018-12-26T09:08:33.244Z,1018.95
2018-12-26T09:09:33.219Z,1018.96
2018-12-26T09:10:33.209Z,1018.97
2018-12-26T09:11:33.195Z,1018.96
2018-12-26T09:12:33.186Z,1018.97
2018-12-26T09:13:33.291Z,1018.96
2018-12-26T09:14:33.180Z,1018.97
2018-12-26T09:15:33.155Z,1018.98
2018-12-26T09:16:33.145Z,1018.99
2018-12-26T09:17:33.136Z,1019.02
2018-12-26T09:18:33.121Z,1019.00
2018-12-26T09:19:33.133Z,1018.99
2018-12-26T09:20:33.100Z,1019.03
2018-12-26T09:21:33.088Z,1018.98
2018-12-26T09:22:33.079Z,1018.92
2018-12-26T09:23:33.068Z,1018.92
2018-12-26T09:24:33.059Z,1018.92
2018-12-26T09:25:33.059Z,1018.95
2018-12-26T09:26:33.036Z,1018.93
2018-12-26T09:27:33.030Z,1019.02
2018-12-26T09:28:33.015Z,1018.96
2018-12-26T09:29:33.020Z,1019.04
2018-12-26T09:30:33.008Z,1018.99
2018-12-26T09:31:32.983Z,1018.99
2018-12-26T09:32:32.970Z,1019.01
2018-12-26T09:33:32.962Z,1019.02
2018-12-26T09:34:32.947Z,1018.94
2018-12-26T09:35:32.959Z,1018.98
2018-12-26T09:36:32.931Z,1018.95
2018-12-26T09:37:32.919Z,1019.00
2018-12-26T09:38:32.906Z,1018.98
2018-12-26T09:39:32.895Z,1019.07
2018-12-26T09:40:32.885Z,1019.03
2018-12-26T09:41:32.888Z,1019.02
2018-12-26T09:42:32.864Z,1019.00
2018-12-26T09:43:32.855Z,1019.10
2018-12-26T09:44:32.842Z,1019.07
2018-12-26T09:45:32.834Z,1019.00
2018-12-26T09:46:32.841Z,1018.98
2018-12-26T09:47:32.811Z,1019.00
2018-12-26T09:48:32.800Z,1018.94
2018-12-26T09:49:32.787Z,1018.94
2018-12-26T09:50:32.781Z,1018.93
2018-12-26T09:51:32.820Z,1018.98
2018-12-26T09:52:32.760Z,1018.97
2018-12-26T09:53:32.745Z,1018.99
2018-12-26T09:54:32.739Z,1019.01
2018-12-26T09:55:32.724Z,1018.97
2018-12-26T09:56:32.714Z,1018.96
2018-12-26T09:57:32.730Z,1018.96
2018-12-26T09:58:32.695Z,1018.91
2018-12-26T09:59:32.681Z,1018.97
2018-12-26T10:00:32.669Z,1018.96
2018-12-26T10:01:32.661Z,1018.96
2018-12-26T10:02:32.652Z,1018.92
2018-12-26T10:03:32.683Z,1018.94
2018-12-26T10:04:32.627Z,1018.93
2018-12-26T10:05:32.619Z,1018.91
2018-12-26T10:06:32.609Z,1018.91
2018-12-26T10:07:32.597Z,1018.93
2018-12-26T10:08:32.603Z,1018.91
2018-12-26T10:09:32.576Z,1018.91
2018-12-26T10:10:32.564Z,1018.92
2018-12-26T10:11:32.553Z,1018.94
2018-12-26T10:12:32.542Z,1018.94
2018-12-26T10:13:32.557Z,1018.89
2018-12-26T10:14:32.522Z,1018.90
2018-12-26T10:15:32.511Z,1018.90
2018-12-26T10:16:32.500Z,1018.87
2018-12-26T10:17:32.491Z,1018.87
2018-12-26T10:18:32.514Z,1018.89
2018-12-26T10:19:32.468Z,1018.86
2018-12-26T10:20:32.461Z,1018.92
2018-12-26T10:21:32.448Z,1018.89
2018-12-26T10:22:32.436Z,1018.90
2018-12-26T10:23:32.428Z,1018.88
2018-12-26T10:24:32.434Z,1018.87
2018-12-26T10:25:32.438Z,1018.91
2018-12-26T10:26:32.392Z,1018.90
2018-12-26T10:27:32.386Z,1018.88
2018-12-26T10:28:32.373Z,1018.86
2018-12-26T10:29:32.360Z,1018.84
2018-12-26T10:30:32.350Z,1018.87
2018-12-26T10:31:32.358Z,1018.83
2018-12-26T10:32:32.332Z,1018.84
2018-12-26T10:33:32.319Z,1018.82
2018-12-26T10:34:32.309Z,1018.83
2018-12-26T10:35:32.313Z,1018.82
2018-12-26T10:36:32.287Z,1018.82
2018-12-26T10:37:32.277Z,1018.84
2018-12-26T10:38:32.265Z,1018.82
2018-12-26T10:39:32.256Z,1018.84
2018-12-26T10:40:32.256Z,1018.89
2018-12-26T10:41:32.233Z,1018.87
2018-12-26T10:42:32.226Z,1018.86
2018-12-26T10:43:32.212Z,1018.81
2018-12-26T10:44:32.201Z,1018.84
2018-12-26T10:45:32.211Z,1018.78
2018-12-26T10:46:32.184Z,1018.83
2018-12-26T10:47:32.187Z,1018.84
2018-12-26T10:48:32.161Z,1018.79
2018-12-26T10:49:32.147Z,1018.80
2018-12-26T10:50:33.150Z,1018.78
2018-12-26T10:51:32.126Z,1018.82
2018-12-26T10:52:32.116Z,1018.70
2018-12-26T10:53:32.108Z,1018.74
2018-12-26T10:54:32.098Z,1018.73
2018-12-26T10:55:32.083Z,1018.70
2018-12-26T10:56:32.088Z,1018.71
2018-12-26T10:57:32.063Z,1018.70
2018-12-26T10:58:32.053Z,1018.72
2018-12-26T10:59:32.065Z,1018.72
2018-12-26T11:00:32.033Z,1018.68
2018-12-26T11:01:32.023Z,1018.69
2018-12-26T11:02:32.011Z,1018.65
2018-12-26T11:03:31.997Z,1018.68
2018-12-26T11:04:31.990Z,1018.69
2018-12-26T11:05:32.016Z,1018.67
2018-12-26T11:06:31.967Z,1018.63
2018-12-26T11:07:31.956Z,1018.62
2018-12-26T11:08:31.947Z,1018.56
2018-12-26T11:09:31.938Z,1018.56
2018-12-26T11:10:31.926Z,1018.55
2018-12-26T11:11:31.933Z,1018.51
2018-12-26T11:12:31.902Z,1018.51
2018-12-26T11:13:31.895Z,1018.55
2018-12-26T11:14:31.907Z,1018.57
2018-12-26T11:15:31.873Z,1018.59
2018-12-26T11:16:31.860Z,1018.55
2018-12-26T11:17:31.851Z,1018.58
2018-12-26T11:18:31.839Z,1018.52
2018-12-26T11:19:31.828Z,1018.56
2018-12-26T11:20:31.849Z,1018.53
2018-12-26T11:21:31.808Z,1018.55
2018-12-26T11:22:31.794Z,1018.53
2018-12-26T11:23:31.787Z,1018.47
2018-12-26T11:24:31.774Z,1018.48
2018-12-26T11:25:31.763Z,1018.46
2018-12-26T11:26:31.772Z,1018.47
2018-12-26T11:27:31.743Z,1018.47
2018-12-26T11:28:31.735Z,1018.47
2018-12-26T11:29:31.724Z,1018.45
2018-12-26T11:30:31.710Z,1018.55
2018-12-26T11:31:31.701Z,1018.56
2018-12-26T11:32:31.750Z,1018.49
2018-12-26T11:33:31.681Z,1018.44
2018-12-26T11:34:31.668Z,1018.47
2018-12-26T11:35:31.659Z,1018.47
2018-12-26T11:36:31.645Z,1018.49
2018-12-26T11:37:31.635Z,1018.45
2018-12-26T11:38:31.648Z,1018.44
2018-12-26T11:39:31.613Z,1018.41
2018-12-26T11:40:31.606Z,1018.43
2018-12-26T11:41:31.596Z,1018.44
2018-12-26T11:42:31.582Z,1018.45
2018-12-26T11:43:31.573Z,1018.41
2018-12-26T11:44:31.576Z,1018.46
2018-12-26T11:45:31.568Z,1018.44
2018-12-26T11:46:31.537Z,1018.42
2018-12-26T11:47:31.549Z,1018.47
2018-12-26T11:48:31.517Z,1018.43
2018-12-26T11:49:31.508Z,1018.42
2018-12-26T11:50:31.498Z,1018.43
2018-12-26T11:51:31.485Z,1018.48
2018-12-26T11:52:31.475Z,1018.40
2018-12-26T11:53:31.480Z,1018.39
2018-12-26T11:54:31.454Z,1018.39
2018-12-26T11:55:31.443Z,1018.40
2018-12-26T11:56:31.434Z,1018.41
2018-12-26T11:57:31.425Z,1018.41
2018-12-26T11:58:31.428Z,1018.40
2018-12-26T11:59:31.401Z,1018.41
2018-12-26T12:00:31.392Z,1018.35
2018-12-26T12:01:31.380Z,1018.39
2018-12-26T12:02:31.368Z,1018.33
2018-12-26T12:03:31.375Z,1018.40
2018-12-26T12:04:31.345Z,1018.36
2018-12-26T12:05:31.339Z,1018.36